Time;durP1;ratioP1;P1;durP2;ratioP2;P2;SDS_P1;SDS_P2;PMS_P1;PMS_P2;Temp;Humidity;BMP_temperature;BMP_pressure;BME280_temperature;BME280_humidity;BME280_pressure;Samples;Min_cycle;Max_cycle;Signal;HPM_P1;HPM_P2
2023/12/06 00:00:03;;;;;;;7.68;6.93;;;;;;;;;;5023481;28;20053;-73
2023/12/06 00:02:34;;;;;;;7.28;6.88;;;;;;;;;;5023249;28;20065;-74
2023/12/06 00:05:04;;;;;;;7.30;6.68;;;;;;;;;;5024099;28;20052;-73
2023/12/06 00:07:34;;;;;;;7.53;7.05;;;;;;;;;;5023507;28;20045;-73
2023/12/06 00:10:06;;;;;;;7.28;6.88;;;;;;;;;;5023632;28;20758;-74
2023/12/06 00:12:37;;;;;;;12.15;11.40;;;;;;;;;;5022612;28;20065;-73
2023/12/06 00:15:09;;;;;;;11.68;10.52;;;;;;;;;;5023169;28;20045;-73
2023/12/06 00:17:39;;;;;;;12.45;11.75;;;;;;;;;;5023394;28;20901;-75
2023/12/06 00:20:13;;;;;;;14.35;13.48;;;;;;;;;;5023612;28;20056;-72
2023/12/06 00:22:44;;;;;;;13.75;12.95;;;;;;;;;;5023197;28;20060;-72
2023/12/06 00:25:15;;;;;;;14.27;13.35;;;;;;;;;;5021965;28;20497;-73
2023/12/06 00:27:45;;;;;;;12.45;11.75;;;;;;;;;;5022818;28;20048;-74
2023/12/06 00:30:16;;;;;;;13.45;12.75;;;;;;;;;;5022568;28;20060;-73
2023/12/06 00:32:47;;;;;;;12.75;12.05;;;;;;;;;;5022891;28;20052;-73
2023/12/06 00:35:17;;;;;;;15.30;14.18;;;;;;;;;;5023124;28;20041;-73
2023/12/06 00:37:48;;;;;;;13.45;12.23;;;;;;;;;;5023309;28;20053;-73
2023/12/06 00:40:18;;;;;;;14.80;13.90;;;;;;;;;;5023116;28;20042;-74
2023/12/06 00:42:49;;;;;;;14.20;13.50;;;;;;;;;;5023241;28;20053;-74
2023/12/06 00:45:20;;;;;;;12.43;11.35;;;;;;;;;;5038190;28;20053;-72
2023/12/06 00:47:49;;;;;;;19.10;17.98;;;;;;;;;;5023251;28;20829;-73
2023/12/06 00:50:20;;;;;;;12.57;11.68;;;;;;;;;;5022977;28;20501;-74
2023/12/06 00:52:51;;;;;;;9.68;9.18;;;;;;;;;;5022883;28;20053;-75
2023/12/06 00:55:21;;;;;;;17.08;16.02;;;;;;;;;;5024042;28;20547;-73
2023/12/06 00:57:51;;;;;;;12.98;12.07;;;;;;;;;;5022072;28;20053;-74
2023/12/06 01:00:21;;;;;;;7.53;7.03;;;;;;;;;;5020834;28;20045;-76
2023/12/06 01:02:53;;;;;;;11.57;10.98;;;;;;;;;;5021661;28;20856;-74
2023/12/06 01:05:23;;;;;;;7.47;7.05;;;;;;;;;;5021139;28;20046;-74
2023/12/06 01:07:54;;;;;;;13.95;12.95;;;;;;;;;;5021677;28;20409;-73
2023/12/06 01:10:24;;;;;;;10.88;9.98;;;;;;;;;;5022233;28;20504;-73
2023/12/06 01:12:55;;;;;;;12.55;11.77;;;;;;;;;;5021990;28;20060;-73
2023/12/06 01:15:26;;;;;;;11.15;10.55;;;;;;;;;;5022167;28;20068;-74
2023/12/06 01:17:56;;;;;;;12.23;11.52;;;;;;;;;;5022107;28;20514;-73
2023/12/06 01:20:26;;;;;;;11.38;10.65;;;;;;;;;;5021115;28;20053;-74
2023/12/06 01:22:56;;;;;;;12.70;11.70;;;;;;;;;;5022721;28;20056;-73
2023/12/06 01:25:27;;;;;;;6.45;6.07;;;;;;;;;;5021158;28;20041;-73
2023/12/06 01:27:58;;;;;;;8.15;7.72;;;;;;;;;;5021152;28;20049;-73
2023/12/06 01:30:28;;;;;;;7.65;7.15;;;;;;;;;;5022011;28;20042;-72
2023/12/06 01:32:58;;;;;;;6.75;6.00;;;;;;;;;;5021736;28;20046;-74
2023/12/06 01:35:28;;;;;;;7.88;6.15;;;;;;;;;;5021792;28;20044;-73
2023/12/06 01:37:59;;;;;;;7.65;7.05;;;;;;;;;;5020194;28;20065;-73
2023/12/06 01:40:29;;;;;;;7.20;6.80;;;;;;;;;;5022271;28;20056;-73
2023/12/06 01:42:59;;;;;;;7.00;6.43;;;;;;;;;;5021904;28;20037;-73
2023/12/06 01:45:29;;;;;;;6.43;6.03;;;;;;;;;;5021502;28;20049;-74
2023/12/06 01:48:00;;;;;;;6.30;5.90;;;;;;;;;;5020717;28;20528;-73
2023/12/06 01:50:32;;;;;;;6.40;5.82;;;;;;;;;;5020264;28;20497;-73
2023/12/06 01:53:04;;;;;;;8.32;7.55;;;;;;;;;;5021604;28;20045;-73
2023/12/06 01:55:34;;;;;;;7.72;7.32;;;;;;;;;;5021460;28;20052;-73
2023/12/06 01:58:04;;;;;;;6.55;5.95;;;;;;;;;;5021162;28;20518;-73
2023/12/06 02:00:35;;;;;;;10.05;6.68;;;;;;;;;;5022079;28;20496;-73
2023/12/06 02:03:07;;;;;;;7.60;7.03;;;;;;;;;;5021357;28;20064;-74
2023/12/06 02:05:38;;;;;;;8.80;7.95;;;;;;;;;;5021796;28;20049;-75
2023/12/06 02:08:08;;;;;;;7.95;7.45;;;;;;;;;;5021983;28;20045;-73
2023/12/06 02:10:38;;;;;;;7.05;6.35;;;;;;;;;;5021717;28;20045;-73
2023/12/06 02:13:09;;;;;;;7.28;6.88;;;;;;;;;;5021594;28;20039;-73
2023/12/06 02:15:40;;;;;;;7.35;6.88;;;;;;;;;;5021598;28;20057;-73
2023/12/06 02:18:10;;;;;;;7.47;7.07;;;;;;;;;;5020991;28;20050;-75
2023/12/06 02:20:42;;;;;;;7.68;6.95;;;;;;;;;;5021068;28;20049;-74
2023/12/06 02:23:15;;;;;;;7.68;7.28;;;;;;;;;;5021809;28;20049;-75
2023/12/06 02:25:46;;;;;;;11.30;10.70;;;;;;;;;;5021202;28;20045;-74
2023/12/06 02:28:16;;;;;;;8.63;8.13;;;;;;;;;;5021234;28;20879;-74
2023/12/06 02:30:46;;;;;;;6.95;6.55;;;;;;;;;;5021005;28;20511;-74
2023/12/06 02:33:16;;;;;;;8.05;7.65;;;;;;;;;;5021733;28;20056;-75
2023/12/06 02:35:56;;;;;;;8.25;7.75;;;;;;;;;;5019874;28;20060;-74
2023/12/06 02:38:29;;;;;;;;;;;;;;;;;;5021725;28;20087;-75
2023/12/06 02:41:02;;;;;;;8.98;8.32;;;;;;;;;;5019760;28;20415;-75
2023/12/06 02:43:32;;;;;;;7.75;7.15;;;;;;;;;;5019639;28;20056;-75
2023/12/06 02:46:04;;;;;;;8.23;7.60;;;;;;;;;;5020979;28;20057;-75
2023/12/06 02:48:35;;;;;;;7.28;6.88;;;;;;;;;;5021417;28;20531;-75
2023/12/06 02:51:05;;;;;;;7.80;7.22;;;;;;;;;;5021392;28;20045;-75
2023/12/06 02:53:36;;;;;;;11.60;11.00;;;;;;;;;;5021193;28;20420;-74
2023/12/06 02:56:06;;;;;;;7.65;6.90;;;;;;;;;;5021676;28;20062;-74
2023/12/06 02:58:37;;;;;;;7.00;6.47;;;;;;;;;;5022289;28;20057;-74
2023/12/06 03:01:07;;;;;;;7.30;6.90;;;;;;;;;;5024918;28;20056;-73
2023/12/06 03:03:37;;;;;;;7.78;7.28;;;;;;;;;;5024198;28;20053;-73
2023/12/06 03:06:08;;;;;;;8.00;7.53;;;;;;;;;;5024744;28;20060;-73
2023/12/06 03:08:38;;;;;;;9.48;8.88;;;;;;;;;;5024628;28;20057;-74
2023/12/06 03:11:08;;;;;;;9.38;8.68;;;;;;;;;;5024427;28;20064;-74
2023/12/06 03:13:38;;;;;;;9.10;8.60;;;;;;;;;;5024435;28;20535;-72
2023/12/06 03:16:08;;;;;;;9.57;8.65;;;;;;;;;;5024201;28;20531;-72
2023/12/06 03:18:38;;;;;;;12.75;12.05;;;;;;;;;;5024228;28;20393;-73
2023/12/06 03:21:08;;;;;;;7.25;6.85;;;;;;;;;;5024933;28;20048;-72
2023/12/06 03:23:38;;;;;;;13.57;12.77;;;;;;;;;;5024611;28;20456;-73
2023/12/06 03:26:09;;;;;;;8.73;8.23;;;;;;;;;;5022862;28;20041;-73
2023/12/06 03:28:40;;;;;;;9.35;8.63;;;;;;;;;;5024239;28;20053;-73
2023/12/06 03:31:09;;;;;;;8.75;8.20;;;;;;;;;;5024055;28;20057;-74
2023/12/06 03:33:40;;;;;;;10.43;9.73;;;;;;;;;;5023945;28;20054;-74
2023/12/06 03:36:13;;;;;;;9.77;9.07;;;;;;;;;;5024242;28;20052;-74
2023/12/06 03:38:43;;;;;;;9.57;8.85;;;;;;;;;;5022240;28;20057;-72
2023/12/06 03:41:15;;;;;;;9.77;9.25;;;;;;;;;;5024680;28;20045;-73
2023/12/06 03:43:44;;;;;;;10.30;9.25;;;;;;;;;;5021587;28;20075;-73
2023/12/06 03:46:31;;;;;;;8.43;7.93;;;;;;;;;;5023860;28;20045;-73
2023/12/06 03:49:01;;;;;;;9.27;8.68;;;;;;;;;;5023723;28;20053;-73
2023/12/06 03:51:31;;;;;;;9.88;9.27;;;;;;;;;;5024166;28;20049;-73
2023/12/06 03:54:03;;;;;;;9.52;8.63;;;;;;;;;;5023557;28;20045;-73
2023/12/06 03:56:35;;;;;;;11.40;10.25;;;;;;;;;;5024245;28;20325;-72
2023/12/06 03:59:06;;;;;;;9.32;8.65;;;;;;;;;;5023495;28;20053;-73
2023/12/06 04:01:36;;;;;;;8.82;8.10;;;;;;;;;;5024440;28;20052;-73
2023/12/06 04:04:07;;;;;;;10.07;9.25;;;;;;;;;;5023663;28;20076;-73
2023/12/06 04:06:37;;;;;;;9.05;8.40;;;;;;;;;;5023540;28;20055;-73
2023/12/06 04:09:10;;;;;;;9.77;9.07;;;;;;;;;;5023425;28;20053;-74
2023/12/06 04:11:41;;;;;;;9.80;9.00;;;;;;;;;;5023286;28;20057;-74
2023/12/06 04:14:11;;;;;;;11.98;11.38;;;;;;;;;;5023128;28;20429;-73
2023/12/06 04:16:42;;;;;;;9.73;9.00;;;;;;;;;;5023279;28;20053;-73
2023/12/06 04:19:12;;;;;;;8.45;7.85;;;;;;;;;;5022909;28;20049;-73
2023/12/06 04:21:44;;;;;;;9.52;8.75;;;;;;;;;;5022876;28;20049;-74
2023/12/06 04:24:15;;;;;;;8.85;8.35;;;;;;;;;;5023047;28;20049;-73
2023/12/06 04:26:45;;;;;;;8.73;8.23;;;;;;;;;;5038365;28;20049;-73
2023/12/06 04:29:16;;;;;;;9.55;8.98;;;;;;;;;;5023944;28;20057;-74
2023/12/06 04:31:46;;;;;;;9.57;8.98;;;;;;;;;;5020831;28;20631;-73
2023/12/06 04:34:18;;;;;;;10.20;9.57;;;;;;;;;;5022808;28;20060;-73
2023/12/06 04:36:49;;;;;;;8.15;7.40;;;;;;;;;;5023160;28;20041;-74
2023/12/06 04:39:18;;;;;;;7.65;7.25;;;;;;;;;;5022312;28;20053;-74
2023/12/06 04:41:49;;;;;;;8.10;7.60;;;;;;;;;;5023098;28;20050;-73
2023/12/06 04:44:20;;;;;;;8.60;8.10;;;;;;;;;;5023319;28;20057;-73
2023/12/06 04:46:53;;;;;;;9.50;8.80;;;;;;;;;;5021166;28;20080;-72
2023/12/06 04:49:22;;;;;;;7.35;6.85;;;;;;;;;;5023102;28;20049;-73
2023/12/06 04:51:54;;;;;;;9.57;8.82;;;;;;;;;;5022613;28;20076;-73
2023/12/06 04:54:25;;;;;;;11.23;10.05;;;;;;;;;;5022006;28;20041;-74
2023/12/06 04:56:56;;;;;;;8.60;8.10;;;;;;;;;;5022123;28;20046;-73
2023/12/06 04:59:26;;;;;;;8.32;7.82;;;;;;;;;;5020902;28;20512;-74
2023/12/06 05:01:56;;;;;;;13.30;12.55;;;;;;;;;;5022425;28;20419;-74
2023/12/06 05:04:27;;;;;;;9.05;8.35;;;;;;;;;;5022549;28;20557;-73
2023/12/06 05:06:58;;;;;;;7.32;6.93;;;;;;;;;;5021946;28;20067;-73
2023/12/06 05:09:29;;;;;;;9.80;9.02;;;;;;;;;;5022396;28;20056;-72
2023/12/06 05:11:59;;;;;;;9.45;8.82;;;;;;;;;;5022233;28;20791;-73
2023/12/06 05:14:29;;;;;;;8.65;7.95;;;;;;;;;;5022032;28;20061;-74
2023/12/06 05:17:00;;;;;;;9.88;9.23;;;;;;;;;;5022669;28;20052;-73
2023/12/06 05:19:31;;;;;;;7.70;7.22;;;;;;;;;;5022384;28;20056;-73
2023/12/06 05:22:02;;;;;;;8.85;8.35;;;;;;;;;;5021979;28;20056;-73
2023/12/06 05:24:32;;;;;;;9.02;8.38;;;;;;;;;;5021892;28;20078;-74
2023/12/06 05:27:02;;;;;;;8.70;8.15;;;;;;;;;;5021449;28;20500;-73
2023/12/06 05:29:33;;;;;;;9.15;8.07;;;;;;;;;;5021710;28;20045;-74
2023/12/06 05:32:03;;;;;;;7.95;7.55;;;;;;;;;;5021023;28;20053;-73
2023/12/06 05:34:34;;;;;;;9.80;8.88;;;;;;;;;;5022302;28;20505;-74
2023/12/06 05:37:05;;;;;;;9.18;8.38;;;;;;;;;;5036435;28;20045;-74
2023/12/06 05:39:36;;;;;;;8.57;7.80;;;;;;;;;;5021390;28;20057;-73
2023/12/06 05:42:08;;;;;;;9.63;8.82;;;;;;;;;;5021936;28;20076;-74
2023/12/06 05:44:38;;;;;;;9.07;8.48;;;;;;;;;;5021841;28;20064;-74
2023/12/06 05:47:11;;;;;;;9.48;8.90;;;;;;;;;;5021720;28;20053;-73
2023/12/06 05:49:41;;;;;;;15.75;9.07;;;;;;;;;;5021760;28;20049;-73
2023/12/06 05:52:13;;;;;;;10.52;9.70;;;;;;;;;;5021859;28;20049;-73
2023/12/06 05:54:43;;;;;;;7.60;7.03;;;;;;;;;;5021092;28;20045;-73
2023/12/06 05:57:14;;;;;;;8.73;8.18;;;;;;;;;;5021408;28;20041;-74
2023/12/06 05:59:43;;;;;;;8.65;7.93;;;;;;;;;;5021404;28;20497;-74
2023/12/06 06:02:14;;;;;;;8.65;7.70;;;;;;;;;;5022261;28;20516;-74
2023/12/06 06:04:45;;;;;;;9.82;9.00;;;;;;;;;;5019989;28;20505;-73
2023/12/06 06:07:16;;;;;;;8.00;7.47;;;;;;;;;;5021992;28;20052;-74
2023/12/06 06:09:47;;;;;;;8.93;8.13;;;;;;;;;;5020263;28;20053;-73
2023/12/06 06:12:27;;;;;;;10.00;9.23;;;;;;;;;;5022161;28;20571;-74
2023/12/06 06:14:58;;;;;;;10.77;9.82;;;;;;;;;;5022062;28;20052;-74
2023/12/06 06:17:28;;;;;;;9.88;9.27;;;;;;;;;;5022441;28;20057;-73
2023/12/06 06:19:58;;;;;;;9.05;8.43;;;;;;;;;;5020860;28;20622;-74
2023/12/06 06:22:28;;;;;;;8.93;8.30;;;;;;;;;;5021253;28;20056;-74
2023/12/06 06:24:58;;;;;;;12.30;11.35;;;;;;;;;;5021415;28;20436;-74
2023/12/06 06:27:28;;;;;;;8.50;7.80;;;;;;;;;;5021196;28;20072;-73
2023/12/06 06:29:58;;;;;;;8.73;7.85;;;;;;;;;;5021533;28;20053;-73
2023/12/06 06:32:29;;;;;;;8.65;7.85;;;;;;;;;;5021258;28;20057;-74
2023/12/06 06:34:59;;;;;;;9.70;8.77;;;;;;;;;;5025526;28;20060;-73
2023/12/06 06:37:29;;;;;;;8.80;8.30;;;;;;;;;;5025534;28;20053;-74
2023/12/06 06:39:59;;;;;;;9.88;9.18;;;;;;;;;;5025698;28;20045;-75
2023/12/06 06:42:30;;;;;;;11.15;8.63;;;;;;;;;;5025678;28;20510;-74
2023/12/06 06:45:02;;;;;;;8.65;7.95;;;;;;;;;;5025155;28;20056;-74
2023/12/06 06:47:32;;;;;;;8.73;7.97;;;;;;;;;;5024610;28;20053;-73
2023/12/06 06:50:04;;;;;;;9.68;8.98;;;;;;;;;;5025136;28;20060;-73
2023/12/06 06:52:34;;;;;;;9.70;8.80;;;;;;;;;;5024655;28;20049;-74
2023/12/06 06:55:07;;;;;;;10.45;9.85;;;;;;;;;;5023870;28;20060;-74
2023/12/06 06:57:38;;;;;;;9.85;9.32;;;;;;;;;;5024217;28;20052;-73
2023/12/06 07:00:10;;;;;;;9.85;8.93;;;;;;;;;;5023307;28;20053;-73
2023/12/06 07:02:40;;;;;;;9.40;8.80;;;;;;;;;;5024643;28;20056;-74
2023/12/06 07:05:14;;;;;;;9.38;8.43;;;;;;;;;;5025148;28;20056;-74
2023/12/06 07:07:45;;;;;;;8.35;7.72;;;;;;;;;;5025062;28;20053;-74
2023/12/06 07:10:15;;;;;;;10.77;9.85;;;;;;;;;;5024482;28;20049;-73
2023/12/06 07:12:44;;;;;;;9.32;8.50;;;;;;;;;;5024473;28;20068;-74
2023/12/06 07:15:15;;;;;;;9.15;8.65;;;;;;;;;;5025578;28;20064;-74
2023/12/06 07:17:47;;;;;;;9.63;8.77;;;;;;;;;;5024198;28;20045;-73
2023/12/06 07:20:17;;;;;;;7.72;7.18;;;;;;;;;;5023987;28;20123;-74
2023/12/06 07:22:49;;;;;;;10.32;9.45;;;;;;;;;;5024043;28;20746;-74
2023/12/06 07:25:20;;;;;;;9.88;9.27;;;;;;;;;;5024466;28;20057;-73
2023/12/06 07:27:50;;;;;;;10.77;10.07;;;;;;;;;;5024930;28;20366;-73
2023/12/06 07:30:21;;;;;;;9.60;8.88;;;;;;;;;;5024570;28;20053;-74
2023/12/06 07:32:52;;;;;;;11.48;10.35;;;;;;;;;;5024452;28;20046;-74
2023/12/06 07:35:24;;;;;;;10.02;9.02;;;;;;;;;;5024943;28;20054;-73
2023/12/06 07:37:55;;;;;;;10.15;9.35;;;;;;;;;;5024397;28;20069;-74
2023/12/06 07:40:27;;;;;;;10.02;9.15;;;;;;;;;;5024243;28;20041;-74
2023/12/06 07:42:57;;;;;;;8.48;8.00;;;;;;;;;;5024457;28;20045;-75
2023/12/06 07:45:27;;;;;;;9.52;8.77;;;;;;;;;;5022560;28;20523;-74
2023/12/06 07:47:58;;;;;;;12.52;11.63;;;;;;;;;;5023919;28;20500;-74
2023/12/06 07:50:29;;;;;;;8.50;8.05;;;;;;;;;;5024123;28;20704;-74
2023/12/06 07:53:00;;;;;;;10.07;9.25;;;;;;;;;;5024284;28;20508;-74
2023/12/06 07:55:30;;;;;;;9.05;8.45;;;;;;;;;;5023626;28;20041;-74
2023/12/06 07:58:00;;;;;;;13.27;12.52;;;;;;;;;;5022122;28;20747;-73
2023/12/06 08:00:30;;;;;;;12.50;11.75;;;;;;;;;;5023704;28;20729;-73
2023/12/06 08:03:00;;;;;;;9.43;8.75;;;;;;;;;;5023549;28;20057;-74
2023/12/06 08:05:31;;;;;;;8.57;8.07;;;;;;;;;;5023648;28;20053;-74
2023/12/06 08:08:02;;;;;;;9.93;9.02;;;;;;;;;;5021078;28;20508;-73
2023/12/06 08:10:33;;;;;;;7.38;6.88;;;;;;;;;;5023220;28;20056;-73
2023/12/06 08:13:04;;;;;;;10.73;9.68;;;;;;;;;;5022049;28;20049;-74
2023/12/06 08:15:35;;;;;;;9.73;9.00;;;;;;;;;;5024075;28;20053;-74
2023/12/06 08:18:06;;;;;;;8.23;7.30;;;;;;;;;;5023543;28;20052;-74
2023/12/06 08:20:37;;;;;;;8.52;7.75;;;;;;;;;;5037949;28;20551;-74
2023/12/06 08:23:08;;;;;;;8.07;7.50;;;;;;;;;;5023569;28;20050;-75
2023/12/06 08:25:40;;;;;;;9.27;8.50;;;;;;;;;;5005652;28;20053;-73
2023/12/06 08:28:10;;;;;;;13.02;12.20;;;;;;;;;;5023700;28;20390;-74
2023/12/06 08:30:40;;;;;;;9.20;7.75;;;;;;;;;;5021286;28;20053;-74
2023/12/06 08:33:13;;;;;;;9.23;7.78;;;;;;;;;;5023317;28;20056;-74
2023/12/06 08:35:45;;;;;;;9.02;8.52;;;;;;;;;;5021557;28;20641;-73
2023/12/06 08:38:15;;;;;;;8.77;7.85;;;;;;;;;;5022478;28;20053;-74
2023/12/06 08:40:45;;;;;;;8.40;7.85;;;;;;;;;;5022570;28;20060;-74
2023/12/06 08:43:15;;;;;;;7.93;7.53;;;;;;;;;;5023262;28;20049;-74
2023/12/06 08:45:45;;;;;;;9.00;7.85;;;;;;;;;;5023654;28;20794;-74
2023/12/06 08:48:16;;;;;;;9.60;8.95;;;;;;;;;;5020931;28;20053;-74
2023/12/06 08:50:47;;;;;;;8.43;7.70;;;;;;;;;;5022694;28;20060;-73
2023/12/06 08:53:17;;;;;;;7.70;7.20;;;;;;;;;;5022737;28;20057;-73
2023/12/06 08:55:47;;;;;;;11.25;10.27;;;;;;;;;;5022880;28;20873;-74
2023/12/06 08:58:18;;;;;;;8.70;7.68;;;;;;;;;;5022489;28;20053;-73
2023/12/06 09:00:48;;;;;;;8.75;7.15;;;;;;;;;;5022753;28;20590;-73
2023/12/06 09:03:19;;;;;;;7.72;7.13;;;;;;;;;;5023539;28;20045;-78
2023/12/06 09:05:49;;;;;;;12.20;11.23;;;;;;;;;;5022519;28;20427;-73
2023/12/06 09:08:19;;;;;;;8.60;7.85;;;;;;;;;;5021266;28;20084;-72
2023/12/06 09:10:52;;;;;;;9.73;8.40;;;;;;;;;;5022814;28;20045;-72
2023/12/06 09:13:23;;;;;;;9.57;8.98;;;;;;;;;;5023211;28;20048;-73
2023/12/06 09:15:55;;;;;;;8.38;7.65;;;;;;;;;;5023998;28;20072;-73
2023/12/06 09:18:26;;;;;;;8.27;7.55;;;;;;;;;;5023628;28;20496;-73
2023/12/06 09:20:56;;;;;;;9.93;9.07;;;;;;;;;;5022938;28;20065;-74
2023/12/06 09:23:27;;;;;;;9.85;9.02;;;;;;;;;;5022520;28;20117;-72
2023/12/06 09:25:58;;;;;;;10.80;7.38;;;;;;;;;;5021524;28;20056;-74
2023/12/06 09:28:29;;;;;;;8.02;7.57;;;;;;;;;;5020811;28;20053;-73
2023/12/06 09:30:59;;;;;;;7.53;6.85;;;;;;;;;;5023384;28;20053;-74
2023/12/06 09:33:31;;;;;;;8.18;7.32;;;;;;;;;;5023006;28;20046;-73
2023/12/06 09:36:03;;;;;;;8.20;7.70;;;;;;;;;;5023141;28;20225;-73
2023/12/06 09:38:34;;;;;;;12.95;12.18;;;;;;;;;;5021830;28;20413;-73
2023/12/06 09:41:05;;;;;;;11.82;8.27;;;;;;;;;;5022129;28;20056;-73
2023/12/06 09:43:37;;;;;;;10.07;9.38;;;;;;;;;;5022021;28;20056;-74
2023/12/06 09:46:08;;;;;;;10.40;8.20;;;;;;;;;;5022280;28;20053;-73
2023/12/06 09:48:40;;;;;;;10.25;9.25;;;;;;;;;;5022247;28;20059;-72
2023/12/06 09:51:10;;;;;;;9.45;8.93;;;;;;;;;;5022526;28;20497;-73
2023/12/06 09:53:42;;;;;;;10.00;9.00;;;;;;;;;;5020038;28;20061;-73
2023/12/06 09:56:13;;;;;;;14.20;13.27;;;;;;;;;;5021639;28;20856;-78
2023/12/06 09:58:45;;;;;;;9.50;8.68;;;;;;;;;;5021205;28;20061;-73
2023/12/06 10:01:15;;;;;;;9.02;8.13;;;;;;;;;;5021972;28;20057;-75
2023/12/06 10:03:46;;;;;;;11.80;10.63;;;;;;;;;;5021706;28;20084;-74
2023/12/06 10:06:17;;;;;;;8.27;7.60;;;;;;;;;;5022240;28;20049;-74
2023/12/06 10:08:55;;;;;;;8.98;8.27;;;;;;;;;;5025333;28;20042;-74
2023/12/06 10:11:25;;;;;;;12.25;11.13;;;;;;;;;;5028071;28;20041;-73
2023/12/06 10:13:57;;;;;;;8.63;7.80;;;;;;;;;;5028424;28;20049;-73
2023/12/06 10:16:27;;;;;;;10.02;9.25;;;;;;;;;;5029641;28;20057;-73
2023/12/06 10:19:01;;;;;;;10.10;9.27;;;;;;;;;;5043504;28;20053;-74
2023/12/06 10:21:32;;;;;;;11.02;8.90;;;;;;;;;;5028003;28;20053;-74
2023/12/06 10:24:03;;;;;;;17.35;8.65;;;;;;;;;;5027266;28;20524;-73
2023/12/06 10:26:34;;;;;;;9.32;8.55;;;;;;;;;;5028703;28;20576;-74
2023/12/06 10:29:04;;;;;;;8.25;7.43;;;;;;;;;;5026117;28;20061;-74
2023/12/06 10:31:45;;;;;;;12.27;8.88;;;;;;;;;;5028836;28;20049;-77
2023/12/06 10:34:18;;;;;;;17.30;8.40;;;;;;;;;;5027649;28;20053;-74
2023/12/06 10:36:50;;;;;;;8.10;7.35;;;;;;;;;;5028526;28;20598;-77
2023/12/06 10:39:21;;;;;;;10.25;8.07;;;;;;;;;;5040920;28;20053;-73
2023/12/06 10:41:55;;;;;;;9.13;8.35;;;;;;;;;;5048548;28;20099;-73
2023/12/06 10:44:27;;;;;;;12.55;11.55;;;;;;;;;;5048968;28;20404;-74
2023/12/06 10:46:58;;;;;;;9.70;8.73;;;;;;;;;;5048066;28;20049;-74
2023/12/06 10:49:38;;;;;;;11.07;10.05;;;;;;;;;;5048166;28;20048;-73
2023/12/06 10:52:10;;;;;;;10.45;9.43;;;;;;;;;;5048599;28;20048;-74
2023/12/06 10:54:43;;;;;;;11.63;9.88;;;;;;;;;;5048253;28;20789;-74
2023/12/06 10:57:14;;;;;;;10.70;9.65;;;;;;;;;;5047862;28;20060;-74
2023/12/06 10:59:46;;;;;;;11.95;9.55;;;;;;;;;;5046683;28;20049;-81
2023/12/06 11:02:16;;;;;;;8.27;7.60;;;;;;;;;;5046826;28;20080;-79
2023/12/06 11:04:51;;;;;;;12.60;11.43;;;;;;;;;;5047608;28;20048;-74
2023/12/06 11:07:25;;;;;;;;;;;;;;;;;;5048432;28;20045;-77
2023/12/06 11:10:28;;;;;;;12.80;8.88;;;;;;;;;;5049947;28;19924;-73
2023/12/06 11:13:40;;;;;;;18.00;8.77;;;;;;;;;;5047924;28;20052;-73
2023/12/06 11:16:23;;;;;;;9.90;8.98;;;;;;;;;;5039435;28;20061;-79
2023/12/06 11:18:55;;;;;;;11.27;7.32;;;;;;;;;;5045625;28;20049;-73
2023/12/06 11:21:27;;;;;;;10.30;8.80;;;;;;;;;;5044890;28;20053;-77
2023/12/06 11:23:58;;;;;;;9.18;7.47;;;;;;;;;;5045064;28;20056;-73
2023/12/06 11:26:28;;;;;;;9.73;8.98;;;;;;;;;;5044877;28;20048;-73
2023/12/06 11:29:02;;;;;;;12.80;11.60;;;;;;;;;;5045010;28;20048;-74
2023/12/06 11:31:36;;;;;;;11.23;10.40;;;;;;;;;;5043245;28;20045;-78
2023/12/06 11:34:09;;;;;;;16.48;9.13;;;;;;;;;;5043161;28;20057;-74
2023/12/06 11:36:40;;;;;;;12.60;9.68;;;;;;;;;;5044157;28;20447;-74
2023/12/06 11:39:17;;;;;;;10.27;9.35;;;;;;;;;;5042928;28;20519;-74
2023/12/06 11:41:55;;;;;;;13.27;8.13;;;;;;;;;;5043482;28;20052;-74
2023/12/06 11:44:25;;;;;;;10.75;9.73;;;;;;;;;;5043264;28;20053;-73
2023/12/06 11:46:56;;;;;;;9.70;8.95;;;;;;;;;;5044506;28;20045;-78
2023/12/06 11:49:30;;;;;;;11.43;8.73;;;;;;;;;;5043472;28;20055;-73
2023/12/06 11:52:05;;;;;;;14.43;12.35;;;;;;;;;;5044050;28;20104;-74
2023/12/06 11:54:44;;;;;;;13.13;11.57;;;;;;;;;;5043818;28;20045;-74
2023/12/06 11:57:15;;;;;;;10.20;9.50;;;;;;;;;;5043819;28;20044;-73
2023/12/06 11:59:47;;;;;;;11.70;10.60;;;;;;;;;;5043778;28;20099;-73
2023/12/06 12:02:17;;;;;;;26.77;21.35;;;;;;;;;;5044085;28;20056;-74
2023/12/06 12:04:49;;;;;;;35.67;18.42;;;;;;;;;;5044511;28;20056;-73
2023/12/06 12:07:20;;;;;;;11.73;11.00;;;;;;;;;;5043381;28;20052;-74
2023/12/06 12:09:50;;;;;;;13.95;12.95;;;;;;;;;;5043632;28;20044;-74
2023/12/06 12:12:21;;;;;;;14.88;13.98;;;;;;;;;;5043703;28;20052;-74
2023/12/06 12:14:51;;;;;;;11.30;10.35;;;;;;;;;;5041878;28;20508;-74
2023/12/06 12:17:21;;;;;;;11.45;10.73;;;;;;;;;;5043548;28;20049;-73
2023/12/06 12:19:52;;;;;;;12.55;11.70;;;;;;;;;;5044557;28;20063;-74
2023/12/06 12:22:23;;;;;;;10.95;10.25;;;;;;;;;;5044288;28;20053;-73
2023/12/06 12:24:53;;;;;;;11.80;11.00;;;;;;;;;;5043911;28;20044;-74
2023/12/06 12:27:29;;;;;;;8.00;7.40;;;;;;;;;;5044107;28;20064;-74
2023/12/06 12:30:00;;;;;;;8.60;7.90;;;;;;;;;;5044759;28;20061;-74
2023/12/06 12:32:34;;;;;;;8.00;7.45;;;;;;;;;;5044315;28;20052;-74
2023/12/06 12:35:05;;;;;;;9.48;8.63;;;;;;;;;;5043054;28;20056;-74
2023/12/06 12:37:36;;;;;;;9.70;8.05;;;;;;;;;;5043047;28;20538;-74
2023/12/06 12:40:11;;;;;;;8.73;8.05;;;;;;;;;;5044266;28;20495;-75
2023/12/06 12:42:42;;;;;;;12.30;11.48;;;;;;;;;;5043094;28;20431;-74
2023/12/06 12:45:18;;;;;;;10.88;9.90;;;;;;;;;;5042705;28;20049;-74
2023/12/06 12:47:49;;;;;;;7.97;7.45;;;;;;;;;;5042882;28;20071;-75
2023/12/06 12:50:21;;;;;;;10.23;8.98;;;;;;;;;;5043032;28;20080;-74
2023/12/06 12:52:56;;;;;;;10.25;9.43;;;;;;;;;;5042569;28;20041;-74
2023/12/06 12:55:27;;;;;;;9.43;8.65;;;;;;;;;;5042234;28;20052;-74
2023/12/06 12:57:59;;;;;;;9.07;8.38;;;;;;;;;;5042476;28;20529;-74
2023/12/06 13:00:30;;;;;;;8.55;7.97;;;;;;;;;;5042119;28;20052;-75
2023/12/06 13:03:00;;;;;;;9.93;8.88;;;;;;;;;;5042142;28;20060;-74
2023/12/06 13:05:30;;;;;;;8.85;8.13;;;;;;;;;;5042188;28;20056;-73
2023/12/06 13:08:01;;;;;;;8.77;8.18;;;;;;;;;;5042566;28;20048;-74
2023/12/06 13:10:31;;;;;;;6.25;5.75;;;;;;;;;;5041655;28;20049;-75
2023/12/06 13:13:01;;;;;;;9.05;8.32;;;;;;;;;;5042778;28;20049;-74
2023/12/06 13:15:32;;;;;;;8.38;7.53;;;;;;;;;;5041037;28;20043;-78
2023/12/06 13:18:03;;;;;;;8.55;7.95;;;;;;;;;;5043810;28;20076;-74
2023/12/06 13:20:34;;;;;;;10.10;8.48;;;;;;;;;;5041324;28;20052;-75
2023/12/06 13:23:04;;;;;;;10.15;8.27;;;;;;;;;;5041823;28;20045;-75
2023/12/06 13:25:34;;;;;;;8.25;7.75;;;;;;;;;;5042465;28;20052;-75
2023/12/06 13:28:05;;;;;;;8.18;7.68;;;;;;;;;;5042721;28;20134;-75
2023/12/06 13:30:36;;;;;;;9.50;8.82;;;;;;;;;;5041688;28;20048;-81
2023/12/06 13:33:06;;;;;;;10.15;9.18;;;;;;;;;;5041823;28;20558;-75
2023/12/06 13:35:36;;;;;;;13.05;11.80;;;;;;;;;;5041295;28;20049;-74
2023/12/06 13:38:07;;;;;;;9.77;9.18;;;;;;;;;;5041837;28;20484;-74
2023/12/06 13:40:37;;;;;;;24.23;22.58;;;;;;;;;;5043028;28;20053;-74
2023/12/06 13:43:08;;;;;;;9.25;8.63;;;;;;;;;;5040836;28;20557;-73
2023/12/06 13:45:38;;;;;;;8.63;8.02;;;;;;;;;;5039866;28;20055;-74
2023/12/06 13:48:08;;;;;;;8.25;7.45;;;;;;;;;;5041309;28;20055;-75
2023/12/06 13:50:39;;;;;;;12.38;11.55;;;;;;;;;;5041869;28;20049;-77
2023/12/06 13:53:11;;;;;;;7.65;7.10;;;;;;;;;;5042052;28;20519;-74
2023/12/06 13:55:42;;;;;;;8.55;8.07;;;;;;;;;;5042616;28;20060;-75
2023/12/06 13:58:13;;;;;;;10.35;9.60;;;;;;;;;;5042146;28;20049;-75
2023/12/06 14:00:43;;;;;;;11.35;10.38;;;;;;;;;;5041736;28;20052;-75
2023/12/06 14:03:15;;;;;;;9.65;8.85;;;;;;;;;;5041061;28;20080;-74
2023/12/06 14:05:45;;;;;;;10.00;9.15;;;;;;;;;;5041154;28;20633;-78
2023/12/06 14:08:16;;;;;;;10.88;10.05;;;;;;;;;;5041582;28;20423;-76
2023/12/06 14:10:46;;;;;;;8.63;8.13;;;;;;;;;;5024251;28;20519;-83
2023/12/06 14:13:17;;;;;;;6.65;6.05;;;;;;;;;;5042227;28;20049;-75
2023/12/06 14:15:47;;;;;;;7.38;6.85;;;;;;;;;;5041400;28;20045;-75
2023/12/06 14:18:18;;;;;;;6.45;6.03;;;;;;;;;;5041625;28;20049;-75
2023/12/06 14:20:50;;;;;;;8.02;7.53;;;;;;;;;;5040999;28;20075;-75
2023/12/06 14:23:21;;;;;;;9.45;8.77;;;;;;;;;;5041893;28;20060;-74
2023/12/06 14:25:53;;;;;;;9.23;8.43;;;;;;;;;;5041858;28;20527;-74
2023/12/06 14:28:23;;;;;;;9.82;9.23;;;;;;;;;;5040493;28;20055;-77
2023/12/06 14:30:54;;;;;;;10.13;9.50;;;;;;;;;;5040503;28;20484;-75
2023/12/06 14:33:24;;;;;;;8.88;8.27;;;;;;;;;;5040010;28;20053;-75
2023/12/06 14:35:54;;;;;;;10.27;9.48;;;;;;;;;;5041698;28;20060;-75
2023/12/06 14:38:25;;;;;;;8.35;7.75;;;;;;;;;;5042469;28;20068;-74
2023/12/06 14:40:55;;;;;;;8.73;8.23;;;;;;;;;;5040457;28;20075;-78
2023/12/06 14:43:26;;;;;;;11.82;10.82;;;;;;;;;;5042360;28;20513;-81
2023/12/06 14:45:58;;;;;;;13.50;10.55;;;;;;;;;;5042726;28;20056;-74
2023/12/06 14:48:29;;;;;;;12.15;11.45;;;;;;;;;;5041577;28;20440;-74
2023/12/06 14:50:59;;;;;;;11.45;10.55;;;;;;;;;;5041762;28;20855;-76
2023/12/06 14:53:29;;;;;;;8.73;8.05;;;;;;;;;;5042558;28;20056;-74
2023/12/06 14:56:01;;;;;;;9.10;8.32;;;;;;;;;;5046825;28;20068;-75
2023/12/06 14:58:31;;;;;;;9.82;9.02;;;;;;;;;;5046114;28;20495;-78